createdAt,value
2022-12-08T00:00:00.291Z,99590
2022-12-08T00:01:04.193Z,99590
2022-12-08T00:02:00.464Z,99590
2022-12-08T00:03:00.490Z,99590
2022-12-08T00:04:02.052Z,99590
2022-12-08T00:05:00.537Z,99590
2022-12-08T00:06:02.612Z,99590
2022-12-08T00:07:00.279Z,99590
2022-12-08T00:08:00.290Z,99590
2022-12-08T00:09:00.230Z,99590
2022-12-08T00:10:00.289Z,99590
2022-12-08T00:11:00.244Z,99590
2022-12-08T00:12:06.935Z,99590
2022-12-08T00:13:00.220Z,99590
2022-12-08T00:14:00.347Z,99590
2022-12-08T00:15:00.592Z,99590
2022-12-08T00:16:00.239Z,99590
2022-12-08T00:17:00.418Z,99590
2022-12-08T00:18:00.225Z,99590
2022-12-08T00:19:00.523Z,99590
2022-12-08T00:20:00.318Z,99590
2022-12-08T00:21:00.631Z,99590
2022-12-08T00:22:00.474Z,99590
2022-12-08T00:23:00.466Z,99590
2022-12-08T00:24:00.235Z,99590
2022-12-08T00:25:00.374Z,99580
2022-12-08T00:26:01.217Z,99580
2022-12-08T00:27:01.461Z,99580
2022-12-08T00:28:00.213Z,99580
2022-12-08T00:29:00.252Z,99580
2022-12-08T00:30:00.220Z,99580
2022-12-08T00:31:07.278Z,99580
2022-12-08T00:32:00.479Z,99580
2022-12-08T00:33:00.221Z,99580
2022-12-08T00:34:00.377Z,99580
2022-12-08T00:35:00.464Z,99590
2022-12-08T00:36:09.465Z,99580
2022-12-08T00:37:00.336Z,99590
2022-12-08T00:38:00.972Z,99590
2022-12-08T00:39:00.247Z,99590
2022-12-08T00:40:00.546Z,99590
2022-12-08T00:41:00.478Z,99590
2022-12-08T00:42:00.210Z,99590
2022-12-08T00:43:00.231Z,99590
2022-12-08T00:44:00.219Z,99600
2022-12-08T00:45:00.237Z,99600
2022-12-08T00:46:00.327Z,99600
2022-12-08T00:47:00.290Z,99600
2022-12-08T00:48:00.231Z,99600
2022-12-08T00:49:00.775Z,99600
2022-12-08T00:50:00.405Z,99600
2022-12-08T00:51:00.302Z,99600
2022-12-08T00:52:00.645Z,99600
2022-12-08T00:53:00.218Z,99610
2022-12-08T00:54:00.218Z,99600
2022-12-08T00:55:00.241Z,99600
2022-12-08T00:56:00.221Z,99600
2022-12-08T00:57:00.253Z,99600
2022-12-08T00:58:00.418Z,99600
2022-12-08T00:59:02.615Z,99600
2022-12-08T01:00:00.499Z,99600
2022-12-08T01:01:00.297Z,99610
2022-12-08T01:02:00.261Z,99610
2022-12-08T01:03:00.279Z,99610
2022-12-08T01:04:02.627Z,99610
2022-12-08T01:05:00.248Z,99610
2022-12-08T01:06:03.026Z,99610
2022-12-08T01:07:00.232Z,99610
2022-12-08T01:08:00.281Z,99610
2022-12-08T01:09:00.658Z,99610
2022-12-08T01:10:00.177Z,99610
2022-12-08T01:11:04.651Z,99610
2022-12-08T01:12:00.370Z,99610
2022-12-08T01:13:00.144Z,99610
2022-12-08T01:14:00.339Z,99610
2022-12-08T01:15:02.455Z,99610
2022-12-08T01:16:00.672Z,99600
2022-12-08T01:17:00.228Z,99600
2022-12-08T01:18:01.156Z,99600
2022-12-08T01:19:00.844Z,99600
2022-12-08T01:20:00.113Z,99600
2022-12-08T01:21:03.756Z,99600
2022-12-08T01:22:00.089Z,99600
2022-12-08T01:23:00.085Z,99600
2022-12-08T01:24:00.251Z,99590
2022-12-08T01:25:00.117Z,99590
2022-12-08T01:26:02.150Z,99590
2022-12-08T01:27:00.078Z,99590
2022-12-08T01:28:00.080Z,99590
2022-12-08T01:29:00.073Z,99590
2022-12-08T01:30:00.054Z,99590
2022-12-08T01:31:00.932Z,99590
2022-12-08T01:32:00.168Z,99590
2022-12-08T01:33:00.728Z,99590
2022-12-08T01:34:00.102Z,99590
2022-12-08T01:35:00.045Z,99590
2022-12-08T01:36:03.564Z,99590
2022-12-08T01:37:00.044Z,99590
2022-12-08T01:38:00.084Z,99590
2022-12-08T01:39:01.217Z,99590
2022-12-08T01:40:00.148Z,99590
2022-12-08T01:41:00.226Z,99580
2022-12-08T01:42:00.134Z,99590
2022-12-08T01:43:00.164Z,99590
2022-12-08T01:44:13.112Z,99590
2022-12-08T01:45:02.451Z,99590
2022-12-08T01:46:00.254Z,99590
2022-12-08T01:47:00.226Z,99590
2022-12-08T01:48:06.033Z,99590
2022-12-08T01:49:14.473Z,99600
2022-12-08T01:50:01.593Z,99590
2022-12-08T01:51:00.346Z,99600
2022-12-08T01:52:09.887Z,99600
2022-12-08T01:53:06.999Z,99590
2022-12-08T01:54:02.642Z,99590
2022-12-08T01:55:07.667Z,99590
2022-12-08T01:56:13.113Z,99590
2022-12-08T01:57:07.452Z,99590
2022-12-08T01:58:07.349Z,99590
2022-12-08T01:59:00.437Z,99590
2022-12-08T02:00:08.001Z,99590
2022-12-08T02:01:00.864Z,99580
2022-12-08T02:02:00.318Z,99590
2022-12-08T02:03:04.063Z,99590
2022-12-08T02:04:02.406Z,99580
2022-12-08T02:05:01.651Z,99580
2022-12-08T02:06:01.658Z,99580
2022-12-08T02:07:07.667Z,99590
2022-12-08T02:08:02.876Z,99580
2022-12-08T02:09:02.671Z,99580
2022-12-08T02:10:01.957Z,99580
2022-12-08T02:11:00.379Z,99580
2022-12-08T02:12:00.434Z,99580
2022-12-08T02:13:01.962Z,99580
2022-12-08T02:14:04.331Z,99590
2022-12-08T02:15:04.975Z,99580
2022-12-08T02:16:17.668Z,99580
2022-12-08T02:17:10.203Z,99580
2022-12-08T02:18:14.111Z,99580
2022-12-08T02:19:30.778Z,99580
2022-12-08T02:20:20.160Z,99580
2022-12-08T02:21:13.024Z,99580
2022-12-08T02:22:10.813Z,99580
2022-12-08T02:23:09.528Z,99580
2022-12-08T02:24:13.338Z,99580
2022-12-08T02:25:17.703Z,99580
2022-12-08T02:26:13.426Z,99580
2022-12-08T02:27:02.262Z,99580
2022-12-08T02:28:20.176Z,99590
2022-12-08T02:29:17.556Z,99590
2022-12-08T02:30:17.528Z,99590
2022-12-08T02:31:19.696Z,99590
2022-12-08T02:32:13.443Z,99580
2022-12-08T02:33:10.768Z,99590
2022-12-08T02:34:14.674Z,99580
2022-12-08T02:35:11.476Z,99590
2022-12-08T02:36:01.274Z,99590
2022-12-08T02:37:08.824Z,99590
2022-12-08T02:38:13.796Z,99590
2022-12-08T02:39:11.199Z,99590
2022-12-08T02:40:20.189Z,99590
2022-12-08T02:41:20.147Z,99590
2022-12-08T02:42:06.865Z,99590
2022-12-08T02:43:08.655Z,99590
2022-12-08T02:44:11.496Z,99590
2022-12-08T02:45:08.486Z,99590
2022-12-08T02:46:08.009Z,99590
2022-12-08T02:47:06.025Z,99580
2022-12-08T02:48:00.595Z,99580
2022-12-08T02:49:01.364Z,99580
2022-12-08T02:50:00.635Z,99570
2022-12-08T02:51:01.433Z,99570
2022-12-08T02:52:11.216Z,99570
2022-12-08T02:53:00.276Z,99570
2022-12-08T02:54:02.038Z,99570
2022-12-08T02:55:04.642Z,99570
2022-12-08T02:56:20.131Z,99570
2022-12-08T02:57:11.711Z,99570
2022-12-08T02:58:13.433Z,99580
2022-12-08T02:59:12.634Z,99580
2022-12-08T03:00:12.822Z,99580
2022-12-08T03:01:18.523Z,99580
2022-12-08T03:02:20.241Z,99580
2022-12-08T03:03:08.413Z,99570
2022-12-08T03:04:07.559Z,99570
2022-12-08T03:05:08.993Z,99570
2022-12-08T03:06:10.483Z,99570
2022-12-08T03:07:07.372Z,99570
2022-12-08T03:08:02.371Z,99570
2022-12-08T03:09:14.470Z,99570
2022-12-08T03:10:09.218Z,99570
2022-12-08T03:11:20.127Z,99570
2022-12-08T03:12:11.593Z,99570
2022-12-08T03:13:12.118Z,99580
2022-12-08T03:14:02.730Z,99570
2022-12-08T03:15:08.008Z,99570
2022-12-08T03:16:03.507Z,99570
2022-12-08T03:17:01.671Z,99570
2022-12-08T03:18:00.224Z,99570
2022-12-08T03:19:09.102Z,99570
2022-12-08T03:20:07.937Z,99570
2022-12-08T03:21:00.771Z,99560
2022-12-08T03:22:03.743Z,99560
2022-12-08T03:23:04.625Z,99560
2022-12-08T03:24:03.148Z,99560
2022-12-08T03:25:00.590Z,99560
2022-12-08T03:26:07.840Z,99560
2022-12-08T03:27:03.693Z,99560
2022-12-08T03:28:00.284Z,99560
2022-12-08T03:29:00.528Z,99550
2022-12-08T03:30:00.698Z,99550
2022-12-08T03:31:05.657Z,99550
2022-12-08T03:32:08.136Z,99560
2022-12-08T03:33:06.099Z,99560
2022-12-08T03:34:03.666Z,99560
2022-12-08T03:35:03.456Z,99560
2022-12-08T03:36:03.029Z,99560
2022-12-08T03:37:00.364Z,99560
2022-12-08T03:38:05.386Z,99560
2022-12-08T03:39:01.033Z,99570
2022-12-08T03:40:00.354Z,99560
2022-12-08T03:41:00.247Z,99560
2022-12-08T03:42:00.238Z,99560
2022-12-08T03:43:00.280Z,99570
2022-12-08T03:44:00.434Z,99570
2022-12-08T03:45:00.258Z,99570
2022-12-08T03:46:00.311Z,99570
2022-12-08T03:47:00.264Z,99570
2022-12-08T03:48:00.341Z,99570
2022-12-08T03:49:00.259Z,99570
2022-12-08T03:50:00.236Z,99570
2022-12-08T03:51:00.257Z,99570
2022-12-08T03:52:00.239Z,99570
2022-12-08T03:53:00.209Z,99570
2022-12-08T03:54:00.259Z,99570
2022-12-08T03:55:00.261Z,99570
2022-12-08T03:56:03.255Z,99570
2022-12-08T03:57:00.276Z,99570
2022-12-08T03:58:00.233Z,99570
2022-12-08T03:59:01.111Z,99570
2022-12-08T04:00:00.281Z,99570
2022-12-08T04:01:00.367Z,99570
2022-12-08T04:02:00.307Z,99570
2022-12-08T04:03:00.368Z,99570
2022-12-08T04:04:00.269Z,99570
2022-12-08T04:05:00.229Z,99570
2022-12-08T04:06:00.291Z,99570
2022-12-08T04:07:00.207Z,99570
2022-12-08T04:08:00.413Z,99570
2022-12-08T04:09:00.302Z,99570
2022-12-08T04:10:00.232Z,99560
2022-12-08T04:11:00.451Z,99560
2022-12-08T04:12:00.240Z,99570
2022-12-08T04:13:00.226Z,99570
2022-12-08T04:14:00.224Z,99560
2022-12-08T04:15:00.219Z,99560
2022-12-08T04:16:00.310Z,99570
2022-12-08T04:17:00.317Z,99560
2022-12-08T04:18:00.234Z,99560
2022-12-08T04:19:00.230Z,99560
2022-12-08T04:20:00.211Z,99560
2022-12-08T04:21:00.870Z,99560
2022-12-08T04:22:00.212Z,99560
2022-12-08T04:23:00.227Z,99560
2022-12-08T04:24:01.476Z,99550
2022-12-08T04:25:00.219Z,99550
2022-12-08T04:26:00.206Z,99550
2022-12-08T04:27:00.235Z,99550
2022-12-08T04:28:00.412Z,99550
2022-12-08T04:29:00.262Z,99550
2022-12-08T04:30:00.929Z,99550
2022-12-08T04:31:00.378Z,99550
2022-12-08T04:32:00.210Z,99540
2022-12-08T04:33:00.340Z,99550
2022-12-08T04:34:00.343Z,99540
2022-12-08T04:35:00.213Z,99550
2022-12-08T04:36:01.053Z,99550
2022-12-08T04:37:00.231Z,99550
2022-12-08T04:38:00.234Z,99550
2022-12-08T04:39:00.963Z,99550
2022-12-08T04:40:00.310Z,99540
2022-12-08T04:41:00.915Z,99550
2022-12-08T04:42:00.306Z,99540
2022-12-08T04:43:00.288Z,99540
2022-12-08T04:44:00.220Z,99540
2022-12-08T04:45:00.301Z,99550
2022-12-08T04:46:00.207Z,99550
2022-12-08T04:47:00.257Z,99540
2022-12-08T04:48:00.983Z,99540
2022-12-08T04:49:00.208Z,99540
2022-12-08T04:50:00.494Z,99540
2022-12-08T04:51:00.243Z,99540
2022-12-08T04:52:00.230Z,99540
2022-12-08T04:53:00.232Z,99530
2022-12-08T04:54:00.251Z,99540
2022-12-08T04:55:00.636Z,99540
2022-12-08T04:56:00.234Z,99540
2022-12-08T04:57:00.232Z,99540
2022-12-08T04:58:00.222Z,99540
2022-12-08T04:59:00.201Z,99540
2022-12-08T05:00:00.254Z,99540
2022-12-08T05:01:00.360Z,99540
2022-12-08T05:02:00.404Z,99530
2022-12-08T05:03:00.365Z,99540
2022-12-08T05:04:00.308Z,99530
2022-12-08T05:05:00.223Z,99540
2022-12-08T05:06:00.763Z,99530
2022-12-08T05:07:00.409Z,99540
2022-12-08T05:08:00.706Z,99530
2022-12-08T05:09:00.270Z,99540
2022-12-08T05:10:00.226Z,99530
2022-12-08T05:11:01.675Z,99530
2022-12-08T05:12:00.533Z,99530
2022-12-08T05:13:00.401Z,99530
2022-12-08T05:14:00.213Z,99530
2022-12-08T05:15:00.223Z,99530
2022-12-08T05:16:07.415Z,99530
2022-12-08T05:17:03.618Z,99530
2022-12-08T05:18:00.221Z,99530
2022-12-08T05:19:00.224Z,99530
2022-12-08T05:20:00.446Z,99530
2022-12-08T05:21:00.414Z,99520
2022-12-08T05:22:00.256Z,99520
2022-12-08T05:23:00.501Z,99520
2022-12-08T05:24:00.254Z,99530
2022-12-08T05:25:00.221Z,99530
2022-12-08T05:26:00.257Z,99530
2022-12-08T05:27:00.455Z,99520
2022-12-08T05:28:32.346Z,99520
2022-12-08T05:29:00.550Z,99520
2022-12-08T05:30:00.516Z,99530
2022-12-08T05:31:00.218Z,99520
2022-12-08T05:32:00.530Z,99520
2022-12-08T05:33:00.287Z,99520
2022-12-08T05:34:03.115Z,99520
2022-12-08T05:35:00.215Z,99520
2022-12-08T05:36:00.217Z,99520
2022-12-08T05:37:00.299Z,99520
2022-12-08T05:38:00.202Z,99520
2022-12-08T05:39:00.258Z,99520
2022-12-08T05:40:00.410Z,99520
2022-12-08T05:41:00.355Z,99520
2022-12-08T05:42:00.225Z,99520
2022-12-08T05:43:00.212Z,99510
2022-12-08T05:44:00.226Z,99520
2022-12-08T05:45:00.315Z,99520
2022-12-08T05:46:00.489Z,99510
2022-12-08T05:47:00.212Z,99510
2022-12-08T05:48:00.742Z,99510
2022-12-08T05:49:00.787Z,99510
2022-12-08T05:50:00.301Z,99510
2022-12-08T05:51:01.679Z,99510
2022-12-08T05:52:00.226Z,99520
2022-12-08T05:53:00.213Z,99520
2022-12-08T05:54:00.239Z,99520
2022-12-08T05:55:00.230Z,99520
2022-12-08T05:56:00.243Z,99520
2022-12-08T05:57:00.245Z,99520
2022-12-08T05:58:04.628Z,99520
2022-12-08T05:59:00.233Z,99520
2022-12-08T06:00:00.372Z,99510
2022-12-08T06:01:00.221Z,99520
2022-12-08T06:02:00.541Z,99510
2022-12-08T06:03:00.446Z,99510
2022-12-08T06:04:02.962Z,99510
2022-12-08T06:05:00.204Z,99510
2022-12-08T06:06:00.234Z,99510
2022-12-08T06:07:00.319Z,99510
2022-12-08T06:08:01.120Z,99510
2022-12-08T06:09:01.525Z,99510
2022-12-08T06:10:00.200Z,99510
2022-12-08T06:11:00.316Z,99510
2022-12-08T06:12:00.404Z,99510
2022-12-08T06:13:00.246Z,99510
2022-12-08T06:14:00.504Z,99520
2022-12-08T06:15:00.274Z,99520
2022-12-08T06:16:05.111Z,99520
2022-12-08T06:17:00.334Z,99520
2022-12-08T06:18:00.290Z,99520
2022-12-08T06:19:00.212Z,99520
2022-12-08T06:20:00.297Z,99520
2022-12-08T06:21:04.117Z,99520
2022-12-08T06:22:00.271Z,99520
2022-12-08T06:23:00.223Z,99520
2022-12-08T06:24:00.290Z,99510
2022-12-08T06:25:00.273Z,99510
2022-12-08T06:26:02.302Z,99510
2022-12-08T06:27:00.240Z,99510
2022-12-08T06:28:00.229Z,99510
2022-12-08T06:29:00.358Z,99510
2022-12-08T06:30:00.282Z,99510
2022-12-08T06:31:05.982Z,99510
2022-12-08T06:32:00.324Z,99510
2022-12-08T06:33:00.212Z,99510
2022-12-08T06:34:00.209Z,99510
2022-12-08T06:35:00.197Z,99510
2022-12-08T06:36:00.294Z,99500
2022-12-08T06:37:00.223Z,99510
2022-12-08T06:38:00.208Z,99510
2022-12-08T06:39:00.218Z,99510
2022-12-08T06:40:00.712Z,99510
2022-12-08T06:41:00.514Z,99510
2022-12-08T06:42:00.320Z,99510
2022-12-08T06:43:00.197Z,99510
2022-12-08T06:44:00.202Z,99510
2022-12-08T06:45:00.367Z,99520
2022-12-08T06:46:00.669Z,99520
2022-12-08T06:47:00.194Z,99520
2022-12-08T06:48:00.708Z,99520
2022-12-08T06:49:00.193Z,99520
2022-12-08T06:50:00.362Z,99520
2022-12-08T06:51:09.658Z,99520
2022-12-08T06:52:00.288Z,99520
2022-12-08T06:53:05.219Z,99520
2022-12-08T06:54:00.354Z,99520
2022-12-08T06:55:00.274Z,99520
2022-12-08T06:56:00.335Z,99520
2022-12-08T06:57:00.225Z,99510
2022-12-08T06:58:00.209Z,99510
2022-12-08T06:59:00.208Z,99520
2022-12-08T07:00:00.339Z,99520
2022-12-08T07:01:05.656Z,99520
2022-12-08T07:02:00.419Z,99520
2022-12-08T07:03:00.318Z,99520
2022-12-08T07:04:00.203Z,99520
2022-12-08T07:05:00.205Z,99520
2022-12-08T07:06:03.801Z,99520
2022-12-08T07:07:00.239Z,99520
2022-12-08T07:08:00.588Z,99520
2022-12-08T07:09:00.228Z,99520
2022-12-08T07:10:00.332Z,99520
2022-12-08T07:11:06.296Z,99520
2022-12-08T07:12:00.240Z,99520
2022-12-08T07:13:00.271Z,99520
2022-12-08T07:14:00.226Z,99520
2022-12-08T07:15:00.369Z,99520
2022-12-08T07:16:00.207Z,99520
2022-12-08T07:17:00.332Z,99520
2022-12-08T07:18:00.713Z,99520
2022-12-08T07:19:00.213Z,99520
2022-12-08T07:20:00.243Z,99520
2022-12-08T07:21:03.766Z,99520
2022-12-08T07:22:00.251Z,99520
2022-12-08T07:23:00.230Z,99520
2022-12-08T07:24:00.228Z,99520
2022-12-08T07:25:00.401Z,99520
2022-12-08T07:26:01.912Z,99520
2022-12-08T07:27:00.227Z,99520
2022-12-08T07:28:00.197Z,99520
2022-12-08T07:29:00.523Z,99520
2022-12-08T07:30:00.230Z,99520
2022-12-08T07:31:00.747Z,99520
2022-12-08T07:32:00.232Z,99520
2022-12-08T07:33:01.731Z,99520
2022-12-08T07:34:00.218Z,99520
2022-12-08T07:35:00.237Z,99520
2022-12-08T07:36:03.222Z,99520
2022-12-08T07:37:01.017Z,99520
2022-12-08T07:38:00.259Z,99520
2022-12-08T07:39:00.302Z,99520
2022-12-08T07:40:00.241Z,99520
2022-12-08T07:41:00.929Z,99520
2022-12-08T07:42:00.355Z,99520
2022-12-08T07:43:00.210Z,99520
2022-12-08T07:44:00.213Z,99520
2022-12-08T07:45:00.234Z,99520
2022-12-08T07:46:00.243Z,99520
2022-12-08T07:47:00.251Z,99520
2022-12-08T07:48:00.243Z,99520
2022-12-08T07:49:00.216Z,99520
2022-12-08T07:50:00.258Z,99520
2022-12-08T07:51:02.852Z,99530
2022-12-08T07:52:00.235Z,99520
2022-12-08T07:53:00.355Z,99530
2022-12-08T07:54:00.257Z,99520
2022-12-08T07:55:00.249Z,99520
2022-12-08T07:56:00.238Z,99530
2022-12-08T07:57:00.242Z,99530
2022-12-08T07:58:00.212Z,99530
2022-12-08T07:59:00.336Z,99530
2022-12-08T08:00:00.271Z,99530
2022-12-08T08:01:00.464Z,99530
2022-12-08T08:02:22.784Z,99530
2022-12-08T08:03:00.698Z,99530
2022-12-08T08:04:02.730Z,99530
2022-12-08T08:05:00.461Z,99530
2022-12-08T08:06:02.940Z,99530
2022-12-08T08:07:00.231Z,99520
2022-12-08T08:08:00.375Z,99520
2022-12-08T08:09:00.253Z,99520
2022-12-08T08:10:00.229Z,99530
2022-12-08T08:11:00.235Z,99520
2022-12-08T08:12:28.956Z,99530
2022-12-08T08:13:00.555Z,99530
2022-12-08T08:14:00.248Z,99530
2022-12-08T08:15:00.799Z,99530
2022-12-08T08:16:05.257Z,99530
2022-12-08T08:17:00.376Z,99530
2022-12-08T08:18:00.238Z,99530
2022-12-08T08:19:00.218Z,99530
2022-12-08T08:20:00.588Z,99530
2022-12-08T08:21:06.894Z,99530
2022-12-08T08:22:00.222Z,99530
2022-12-08T08:23:00.236Z,99530
2022-12-08T08:24:00.222Z,99520
2022-12-08T08:25:00.232Z,99530
2022-12-08T08:26:01.785Z,99520
2022-12-08T08:27:00.252Z,99530
2022-12-08T08:28:00.223Z,99530
2022-12-08T08:29:00.229Z,99530
2022-12-08T08:30:00.225Z,99520
2022-12-08T08:31:00.929Z,99530
2022-12-08T08:32:00.280Z,99530
2022-12-08T08:33:00.241Z,99520
2022-12-08T08:34:00.245Z,99520
2022-12-08T08:35:00.536Z,99520
2022-12-08T08:36:00.283Z,99520
2022-12-08T08:37:00.537Z,99520
2022-12-08T08:38:00.433Z,99520
2022-12-08T08:39:00.247Z,99520
2022-12-08T08:40:00.240Z,99520
2022-12-08T08:41:06.622Z,99530
2022-12-08T08:42:00.569Z,99520
2022-12-08T08:43:00.969Z,99520
2022-12-08T08:44:00.500Z,99520
2022-12-08T08:45:00.242Z,99520
2022-12-08T08:46:01.739Z,99520
2022-12-08T08:47:00.202Z,99520
2022-12-08T08:48:00.357Z,99520
2022-12-08T08:49:00.506Z,99520
2022-12-08T08:50:00.217Z,99520
2022-12-08T08:51:07.828Z,99510
2022-12-08T08:52:00.277Z,99520
2022-12-08T08:53:00.204Z,99510
2022-12-08T08:54:00.353Z,99510
2022-12-08T08:55:00.276Z,99520
2022-12-08T08:56:02.532Z,99510
2022-12-08T08:57:00.944Z,99510
2022-12-08T08:58:00.206Z,99510
2022-12-08T08:59:00.240Z,99510
2022-12-08T09:00:00.287Z,99510
2022-12-08T09:01:00.218Z,99510
2022-12-08T09:02:00.394Z,99510
2022-12-08T09:03:00.234Z,99510
2022-12-08T09:04:00.377Z,99510
2022-12-08T09:05:00.440Z,99510
2022-12-08T09:06:00.385Z,99500
2022-12-08T09:07:00.207Z,99510
2022-12-08T09:08:00.299Z,99500
2022-12-08T09:09:00.288Z,99500
2022-12-08T09:10:02.060Z,99500
2022-12-08T09:11:00.226Z,99500
2022-12-08T09:12:00.390Z,99500
2022-12-08T09:13:00.533Z,99500
2022-12-08T09:14:00.249Z,99490
2022-12-08T09:15:00.257Z,99490
2022-12-08T09:16:02.036Z,99490
2022-12-08T09:17:00.203Z,99490
2022-12-08T09:18:00.265Z,99490
2022-12-08T09:19:00.198Z,99490
2022-12-08T09:20:00.392Z,99490
2022-12-08T09:21:05.732Z,99490
2022-12-08T09:22:00.232Z,99490
2022-12-08T09:23:00.330Z,99490
2022-12-08T09:24:00.310Z,99490
2022-12-08T09:25:00.274Z,99490
2022-12-08T09:26:02.037Z,99490
2022-12-08T09:27:00.226Z,99490
2022-12-08T09:28:00.218Z,99490
2022-12-08T09:29:00.238Z,99480
2022-12-08T09:30:00.234Z,99480
2022-12-08T09:31:00.863Z,99480
2022-12-08T09:32:00.236Z,99480
2022-12-08T09:33:00.222Z,99480
2022-12-08T09:34:00.218Z,99480
2022-12-08T09:35:00.242Z,99480
2022-12-08T09:36:02.614Z,99480
2022-12-08T09:37:00.223Z,99470
2022-12-08T09:38:00.210Z,99480
2022-12-08T09:39:00.230Z,99480
2022-12-08T09:40:00.267Z,99480
2022-12-08T09:41:03.104Z,99480
2022-12-08T09:42:03.717Z,99480
2022-12-08T09:43:15.696Z,99480
2022-12-08T09:44:20.114Z,99470
2022-12-08T09:45:08.037Z,99470
2022-12-08T09:46:06.344Z,99470
2022-12-08T09:47:04.225Z,99470
2022-12-08T09:48:10.953Z,99470
2022-12-08T09:49:02.183Z,99460
2022-12-08T09:50:05.520Z,99460
2022-12-08T09:51:02.254Z,99460
2022-12-08T09:52:01.167Z,99470
2022-12-08T09:53:07.719Z,99470
2022-12-08T09:54:06.635Z,99470
2022-12-08T09:55:08.480Z,99470
2022-12-08T09:56:04.617Z,99460
2022-12-08T09:57:07.220Z,99470
2022-12-08T09:58:02.502Z,99470
2022-12-08T09:59:04.136Z,99460
2022-12-08T10:00:06.050Z,99470
2022-12-08T10:01:00.248Z,99470
2022-12-08T10:02:01.965Z,99470
2022-12-08T10:03:00.345Z,99460
2022-12-08T10:04:00.705Z,99470
2022-12-08T10:05:00.296Z,99470
2022-12-08T10:06:06.736Z,99460
2022-12-08T10:07:04.288Z,99460
2022-12-08T10:08:11.053Z,99460
2022-12-08T10:09:15.172Z,99460
2022-12-08T10:10:20.231Z,99460
2022-12-08T10:11:08.850Z,99460
2022-12-08T10:12:14.488Z,99460
2022-12-08T10:13:11.155Z,99460
2022-12-08T10:14:13.705Z,99460
2022-12-08T10:15:20.146Z,99460
2022-12-08T10:16:07.421Z,99460
2022-12-08T10:17:06.861Z,99460
2022-12-08T10:18:02.607Z,99460
2022-12-08T10:19:09.044Z,99450
2022-12-08T10:20:10.800Z,99460
2022-12-08T10:21:18.526Z,99450
2022-12-08T10:22:04.073Z,99450
2022-12-08T10:23:12.571Z,99450
2022-12-08T10:24:08.282Z,99450
2022-12-08T10:25:10.124Z,99450
2022-12-08T10:26:03.158Z,99450
2022-12-08T10:27:01.156Z,99460
2022-12-08T10:28:00.211Z,99450
2022-12-08T10:29:00.956Z,99450
2022-12-08T10:30:00.921Z,99450
2022-12-08T10:31:00.409Z,99450
2022-12-08T10:32:00.555Z,99450
2022-12-08T10:33:00.395Z,99450
2022-12-08T10:34:13.891Z,99440
2022-12-08T10:35:05.872Z,99450
2022-12-08T10:36:00.264Z,99450
2022-12-08T10:37:08.635Z,99450
2022-12-08T10:38:01.992Z,99450
2022-12-08T10:39:00.229Z,99450
2022-12-08T10:40:10.670Z,99450
2022-12-08T10:41:06.423Z,99440
2022-12-08T10:42:11.341Z,99440
2022-12-08T10:43:01.879Z,99450
2022-12-08T10:44:00.789Z,99440
2022-12-08T10:45:10.181Z,99440
2022-12-08T10:46:10.218Z,99440
2022-12-08T10:47:10.631Z,99440
2022-12-08T10:48:02.882Z,99440
2022-12-08T10:49:03.492Z,99440
2022-12-08T10:50:08.837Z,99440
2022-12-08T10:51:00.249Z,99440
2022-12-08T10:52:00.267Z,99440
2022-12-08T10:53:07.610Z,99440
2022-12-08T10:54:00.587Z,99440
2022-12-08T10:55:00.241Z,99440
2022-12-08T10:56:00.216Z,99440
2022-12-08T10:57:00.520Z,99440
2022-12-08T10:58:00.226Z,99440
2022-12-08T10:59:10.681Z,99440
2022-12-08T11:00:00.287Z,99440
2022-12-08T11:01:01.245Z,99440
2022-12-08T11:02:00.496Z,99440
2022-12-08T11:03:02.905Z,99440
2022-12-08T11:04:03.044Z,99440
2022-12-08T11:05:00.318Z,99430
2022-12-08T11:06:11.207Z,99430
2022-12-08T11:07:03.279Z,99440
2022-12-08T11:08:01.265Z,99430
2022-12-08T11:09:01.511Z,99430
2022-12-08T11:10:00.279Z,99430
2022-12-08T11:11:00.243Z,99430
2022-12-08T11:12:07.545Z,99430
2022-12-08T11:13:01.727Z,99430
2022-12-08T11:14:06.073Z,99440
2022-12-08T11:15:01.413Z,99430
2022-12-08T11:16:00.292Z,99430
2022-12-08T11:17:04.760Z,99430
2022-12-08T11:18:07.235Z,99430
2022-12-08T11:19:03.322Z,99430
2022-12-08T11:20:10.179Z,99430
2022-12-08T11:21:09.577Z,99430
2022-12-08T11:22:00.227Z,99420
2022-12-08T11:23:00.231Z,99420
2022-12-08T11:24:17.061Z,99420
2022-12-08T11:25:07.376Z,99420
2022-12-08T11:26:20.150Z,99420
2022-12-08T11:27:03.429Z,99420
2022-12-08T11:28:00.806Z,99420
2022-12-08T11:29:00.454Z,99420
2022-12-08T11:30:01.461Z,99420
2022-12-08T11:31:05.939Z,99420
2022-12-08T11:32:11.127Z,99420
2022-12-08T11:33:17.567Z,99420
2022-12-08T11:34:01.979Z,99420
2022-12-08T11:35:05.264Z,99410
2022-12-08T11:36:04.483Z,99420
2022-12-08T11:37:03.872Z,99420
2022-12-08T11:38:20.464Z,99420
2022-12-08T11:39:03.112Z,99420
2022-12-08T11:40:06.089Z,99410
2022-12-08T11:41:13.991Z,99410
2022-12-08T11:42:02.517Z,99420
2022-12-08T11:43:17.450Z,99410
2022-12-08T11:44:15.563Z,99410
2022-12-08T11:45:06.572Z,99410
2022-12-08T11:46:08.310Z,99410
2022-12-08T11:47:08.113Z,99410
2022-12-08T11:48:10.164Z,99410
2022-12-08T11:49:06.633Z,99410
2022-12-08T11:50:12.155Z,99410
2022-12-08T11:51:10.167Z,99410
2022-12-08T11:52:07.861Z,99420
2022-12-08T11:53:00.623Z,99410
2022-12-08T11:54:14.618Z,99410
2022-12-08T11:55:14.325Z,99410
2022-12-08T11:56:10.398Z,99410
2022-12-08T11:57:03.549Z,99410
2022-12-08T11:58:10.810Z,99410
2022-12-08T11:59:05.526Z,99410
2022-12-08T12:00:00.817Z,99410
2022-12-08T12:01:00.977Z,99410
2022-12-08T12:02:03.288Z,99410
2022-12-08T12:03:08.428Z,99410
2022-12-08T12:04:10.144Z,99410
2022-12-08T12:05:05.970Z,99410
2022-12-08T12:06:38.221Z,99400
2022-12-08T12:07:10.611Z,99400
2022-12-08T12:08:17.912Z,99400
2022-12-08T12:09:06.235Z,99400
2022-12-08T12:10:17.586Z,99400
2022-12-08T12:11:13.883Z,99400
2022-12-08T12:12:10.162Z,99400
2022-12-08T12:13:01.197Z,99400
2022-12-08T12:14:18.382Z,99390
2022-12-08T12:15:20.286Z,99400
2022-12-08T12:16:11.206Z,99400
2022-12-08T12:17:05.000Z,99400
2022-12-08T12:18:17.105Z,99390
2022-12-08T12:19:11.594Z,99400
2022-12-08T12:20:08.485Z,99400
2022-12-08T12:21:09.581Z,99390
2022-12-08T12:22:12.912Z,99400
2022-12-08T12:23:20.132Z,99400
2022-12-08T12:24:05.538Z,99390
2022-12-08T12:25:01.209Z,99390
2022-12-08T12:26:03.089Z,99390
2022-12-08T12:27:13.992Z,99390
2022-12-08T12:28:04.631Z,99390
2022-12-08T12:29:05.576Z,99400
2022-12-08T12:30:05.377Z,99400
2022-12-08T12:31:05.664Z,99390
2022-12-08T12:32:04.730Z,99390
2022-12-08T12:33:00.950Z,99390
2022-12-08T12:34:13.330Z,99390
2022-12-08T12:35:00.430Z,99400
2022-12-08T12:36:04.376Z,99400
2022-12-08T12:37:05.858Z,99390
2022-12-08T12:38:06.216Z,99390
2022-12-08T12:39:00.365Z,99390
2022-12-08T12:40:04.770Z,99400
2022-12-08T12:41:03.156Z,99390
2022-12-08T12:42:03.328Z,99390
2022-12-08T12:43:00.188Z,99390
2022-12-08T12:44:11.192Z,99390
2022-12-08T12:45:11.331Z,99390
2022-12-08T12:46:20.177Z,99390
2022-12-08T12:47:03.443Z,99390
2022-12-08T12:48:00.194Z,99390
2022-12-08T12:49:20.152Z,99390
2022-12-08T12:50:05.801Z,99390
2022-12-08T12:51:20.114Z,99390
2022-12-08T12:52:00.410Z,99380